Time;durP1;ratioP1;P1;durP2;ratioP2;P2;SDS_P1;SDS_P2;PMS_P1;PMS_P2;Temp;Humidity;BMP_temperature;BMP_pressure;BME280_temperature;BME280_humidity;BME280_pressure;Samples;Min_cycle;Max_cycle;Signal;HPM_P1;HPM_P2
2023/03/23 00:00:37;;;;;;;;;1.00;1.00;;;;;14.53;64.85;99952.69;5073255;28;47441;-74
2023/03/23 00:03:03;;;;;;;;;2.00;1.00;;;;;14.48;65.13;99931.22;5073565;27;45896;-74
2023/03/23 00:05:28;;;;;;;;;1.00;1.00;;;;;14.51;64.91;99959.13;5073336;28;45583;-74
2023/03/23 00:07:55;;;;;;;;;0.50;0.50;;;;;14.42;65.55;99938.91;5073288;27;45783;-73
2023/03/23 00:13:43;;;;;;;;;1.00;0.50;;;;;14.45;65.01;99936.81;5073075;28;45724;-74
2023/03/23 00:16:19;;;;;;;;;0.50;0.50;;;;;14.41;64.65;99926.72;5073035;27;45840;-74
2023/03/23 00:18:52;;;;;;;;;1.00;1.00;;;;;14.41;64.83;99921.47;5072485;27;45708;-74
2023/03/23 00:21:32;;;;;;;;;1.00;1.00;;;;;14.40;64.71;99931.16;5073082;27;46551;-74
2023/03/23 00:23:59;;;;;;;;;1.25;0.25;;;;;14.36;64.95;99918.41;5073318;27;46132;-74
2023/03/23 00:29:46;;;;;;;;;1.00;1.00;;;;;14.33;65.05;99922.16;5072709;28;45788;-74
2023/03/23 00:32:14;;;;;;;;;2.00;1.50;;;;;14.27;64.97;99915.69;5072336;28;47321;-74
2023/03/23 00:34:41;;;;;;;;;0.00;0.00;;;;;14.34;65.01;99933.53;5072698;27;46256;-73
2023/03/23 00:37:07;;;;;;;;;1.00;0.00;;;;;14.24;65.07;99921.25;5072735;27;45593;-73
2023/03/23 00:39:36;;;;;;;;;0.25;0.25;;;;;14.26;65.09;99924.56;5072316;28;45600;-73
2023/03/23 00:42:02;;;;;;;;;0.00;0.00;;;;;14.28;65.21;99919.16;5072390;27;45794;-73
2023/03/23 00:44:30;;;;;;;;;1.00;1.00;;;;;14.28;64.80;99924.41;5073208;28;45675;-74
2023/03/23 00:46:56;;;;;;;;;0.75;0.75;;;;;14.27;64.92;99926.22;5088465;27;45731;-74
2023/03/23 00:49:25;;;;;;;;;1.50;1.50;;;;;14.25;64.81;99909.72;5071831;27;45632;-74
2023/03/23 00:51:56;;;;;;;;;1.50;1.00;;;;;14.24;65.19;99909.91;5072504;27;46425;-74
2023/03/23 00:54:22;;;;;;;;;1.00;1.00;;;;;14.26;65.22;99905.28;5072774;27;46773;-73
2023/03/23 01:00:10;;;;;;;;;1.00;1.00;;;;;14.27;64.80;99914.84;5075987;28;45692;-73
2023/03/23 01:02:36;;;;;;;;;1.50;1.50;;;;;14.27;65.20;99912.22;5076158;27;47276;-77
2023/03/23 01:05:03;;;;;;;;;1.00;1.00;;;;;14.26;65.08;99903.47;5075724;27;46836;-72
2023/03/23 01:07:30;;;;;;;;;1.50;1.00;;;;;14.32;65.31;99914.41;5091685;27;45677;-72
2023/03/23 01:09:57;;;;;;;;;3.00;2.75;;;;;14.32;64.77;99906.50;5076163;27;45900;-74
2023/03/23 01:12:24;;;;;;;;;3.00;2.00;;;;;14.30;65.34;99915.38;5076261;28;45600;-73
2023/03/23 01:14:50;;;;;;;;;1.50;1.00;;;;;14.38;65.04;99933.13;5091172;27;46029;-75
2023/03/23 01:17:15;;;;;;;;;1.00;1.00;;;;;14.36;65.42;99923.69;5075978;27;45672;-77
2023/03/23 01:19:42;;;;;;;;;1.00;1.00;;;;;14.35;65.43;99914.94;5075400;27;45663;-74
2023/03/23 01:22:07;;;;;;;;;1.00;1.00;;;;;14.32;65.41;99896.78;5075580;27;46174;-74
2023/03/23 01:24:32;;;;;;;;;1.50;1.50;;;;;14.35;65.73;99879.84;5075413;28;46142;-73
2023/03/23 01:30:20;;;;;;;;;1.00;1.00;;;;;14.29;65.85;99911.09;5075284;28;45648;-73
2023/03/23 01:32:45;;;;;;;;;2.00;2.00;;;;;14.29;65.62;99916.38;5075276;27;47357;-72
2023/03/23 01:35:13;;;;;;;;;2.00;2.00;;;;;14.28;66.04;99904.16;5075724;28;45576;-72
2023/03/23 01:37:38;;;;;;;;;1.00;1.00;;;;;14.25;65.91;99896.56;5090817;27;45776;-74
2023/03/23 01:40:04;;;;;;;;;1.75;1.75;;;;;14.25;65.67;99882.56;5075329;28;45601;-74
2023/03/23 01:45:51;;;;;;;;;1.00;1.00;;;;;14.23;65.63;99871.34;5075219;28;45955;-76
2023/03/23 01:48:23;;;;;;;;;1.00;0.00;;;;;14.24;65.71;99870.38;5074347;28;45586;-73
2023/03/23 01:50:59;;;;;;;;;1.00;1.00;;;;;14.27;65.59;99870.06;5090802;27;45814;-74
2023/03/23 01:53:32;;;;;;;;;1.00;1.00;;;;;14.28;65.66;99866.44;5074876;27;47502;-74
2023/03/23 01:55:59;;;;;;;;;1.50;1.50;;;;;14.27;65.37;99855.09;5074919;27;46556;-74
2023/03/23 01:58:30;;;;;;;;;1.00;1.00;;;;;14.28;65.83;99854.09;5074801;27;45711;-73
2023/03/23 02:01:00;;;;;;;;;0.00;0.00;;;;;14.28;65.32;99854.09;5075422;27;45598;-73
2023/03/23 02:03:27;;;;;;;;;1.75;1.00;;;;;14.27;65.55;99846.34;5075449;28;45660;-73
2023/03/23 02:05:54;;;;;;;;;1.00;1.00;;;;;14.29;65.68;99842.59;5074605;27;45778;-73
2023/03/23 02:08:20;;;;;;;;;0.75;0.75;;;;;14.29;65.80;99829.41;5074349;27;45514;-74
2023/03/23 02:10:46;;;;;;;;;2.00;2.00;;;;;14.23;65.42;99835.28;5074135;27;45688;-74
2023/03/23 02:13:12;;;;;;;;;0.50;0.50;;;;;14.28;65.38;99837.47;5074579;28;46451;-75
2023/03/23 02:15:42;;;;;;;;;1.25;1.00;;;;;14.27;65.36;99854.25;5074646;27;46434;-74
2023/03/23 02:18:23;;;;;;;;;2.00;1.00;;;;;14.27;65.65;99862.97;5075026;27;45794;-76
2023/03/23 02:21:07;;;;;;;;;1.00;1.00;;;;;14.26;65.43;99881.56;5074369;27;45684;-75
2023/03/23 02:23:52;;;;;;;;;2.00;1.00;;;;;14.25;65.84;99901.81;5090841;27;46677;-74
2023/03/23 02:26:34;;;;;;;;;1.00;1.00;;;;;14.23;65.95;99895.06;5074814;27;46464;-76
2023/03/23 02:29:03;;;;;;;;;1.00;1.00;;;;;14.24;65.94;99896.72;5074094;28;45767;-75
2023/03/23 02:31:54;;;;;;;;;0.00;0.00;;;;;14.24;65.72;99878.28;5074569;27;45801;-76
2023/03/23 02:34:31;;;;;;;;;0.75;0.75;;;;;14.21;65.69;99897.84;5074897;27;46582;-75
2023/03/23 02:37:06;;;;;;;;;1.00;1.00;;;;;14.17;65.50;99899.13;5075105;28;46976;-75
2023/03/23 02:39:40;;;;;;;;;2.00;2.00;;;;;14.18;65.43;99899.94;5073930;27;45667;-76
2023/03/23 02:42:11;;;;;;;;;1.00;1.00;;;;;14.12;65.49;99890.00;5074509;27;45617;-76
2023/03/23 02:44:41;;;;;;;;;1.75;1.00;;;;;14.13;65.70;99903.03;5074766;27;45919;-77
2023/03/23 02:47:15;;;;;;;;;1.25;1.25;;;;;14.07;65.63;99890.47;5074548;27;46166;-74
2023/03/23 02:49:45;;;;;;;;;0.00;0.00;;;;;14.11;65.43;99899.72;5074194;27;45770;-77
2023/03/23 02:52:17;;;;;;;;;0.25;0.25;;;;;14.05;65.78;99889.75;5075067;28;45705;-73
2023/03/23 02:54:45;;;;;;;;;1.50;1.25;;;;;14.15;65.76;99893.16;5074699;27;45842;-74
2023/03/23 02:57:11;;;;;;;;;1.25;1.25;;;;;14.15;65.86;99877.34;5074580;27;46910;-74
2023/03/23 02:59:36;;;;;;;;;0.75;0.00;;;;;14.15;65.70;99890.53;5073485;27;45616;-78
2023/03/23 03:02:09;;;;;;;;;3.00;1.00;;;;;14.14;65.37;99882.78;5074496;28;45906;-73
2023/03/23 03:04:40;;;;;;;;;0.25;0.25;;;;;14.14;65.41;99886.22;5076782;27;46013;-73
2023/03/23 03:07:16;;;;;;;;;0.00;0.00;;;;;14.16;65.42;99875.56;5076266;27;45985;-73
2023/03/23 03:09:58;;;;;;;;;1.00;1.00;;;;;14.12;65.51;99875.03;5074023;28;45872;-71
2023/03/23 03:12:45;;;;;;;;;2.00;1.25;;;;;14.17;65.55;99861.41;5074626;28;45735;-74
2023/03/23 03:15:43;;;;;;;;;1.25;1.00;;;;;14.18;65.84;99853.34;5074011;28;45784;-74
2023/03/23 03:18:31;;;;;;;;;1.50;1.00;;;;;14.09;65.54;99845.53;5073698;27;45998;-77
2023/03/23 03:21:05;;;;;;;;;1.75;1.00;;;;;14.20;65.59;99869.81;5074268;27;45708;-76
2023/03/23 03:23:33;;;;;;;;;1.25;1.00;;;;;14.21;65.97;99868.03;5074106;27;45711;-75
2023/03/23 03:26:02;;;;;;;;;1.00;1.00;;;;;14.11;65.89;99849.66;5073935;27;46562;-77
2023/03/23 03:28:28;;;;;;;;;2.25;1.25;;;;;14.20;65.71;99867.19;5073532;27;45959;-75
2023/03/23 03:31:00;;;;;;;;;0.00;0.00;;;;;14.19;65.58;99868.19;5072435;28;45742;-76
2023/03/23 03:33:30;;;;;;;;;1.00;1.00;;;;;14.21;66.04;99873.28;5074096;27;46116;-75
2023/03/23 03:35:59;;;;;;;;;1.50;1.50;;;;;14.15;65.81;99860.72;5074106;27;47415;-77
2023/03/23 03:38:25;;;;;;;;;1.25;1.00;;;;;14.22;65.46;99873.16;5073444;28;45602;-75
2023/03/23 03:40:51;;;;;;;;;1.50;1.50;;;;;14.24;65.53;99870.38;5089601;27;45896;-74
2023/03/23 03:43:17;;;;;;;;;1.00;1.00;;;;;14.22;65.71;99872.31;5074308;27;45779;-76
2023/03/23 03:45:43;;;;;;;;;2.50;1.50;;;;;14.17;65.78;99870.13;5072910;27;46553;-77
2023/03/23 03:48:08;;;;;;;;;1.00;1.00;;;;;14.20;65.34;99875.09;5072685;27;45921;-75
2023/03/23 03:50:35;;;;;;;;;1.50;1.00;;;;;14.21;65.82;99876.75;5073655;27;46028;-75
2023/03/23 03:53:00;;;;;;;;;1.00;1.00;;;;;14.19;65.71;99862.94;5073666;27;45858;-74
2023/03/23 03:55:27;;;;;;;;;1.00;1.00;;;;;14.21;65.50;99876.75;5072921;27;46816;-73
2023/03/23 04:01:16;;;;;;;;;2.00;2.00;;;;;14.21;65.96;99868.84;5073024;28;45953;-76
2023/03/23 04:03:42;;;;;;;;;0.00;0.00;;;;;14.16;65.78;99871.09;5088612;27;45660;-76
2023/03/23 04:06:08;;;;;;;;;1.00;1.00;;;;;14.18;66.43;99881.50;5072871;27;46779;-73
2023/03/23 04:08:34;;;;;;;;;2.75;2.00;;;;;14.11;66.26;99878.63;5072621;27;46154;-72
2023/03/23 04:10:59;;;;;;;;;2.25;1.25;;;;;14.12;66.11;99875.03;5072969;27;45518;-74
2023/03/23 04:16:46;;;;;;;;;1.00;0.75;;;;;14.19;66.28;99891.06;5073319;28;45760;-74
2023/03/23 04:19:12;;;;;;;;;2.00;2.00;;;;;14.19;66.54;99891.06;5072693;27;47196;-71
2023/03/23 04:21:38;;;;;;;;;1.00;1.00;;;;;14.20;66.16;99890.06;5073212;27;45641;-74
2023/03/23 04:24:03;;;;;;;;;1.00;1.00;;;;;14.20;65.91;99883.00;5073248;28;45723;-75
2023/03/23 04:26:29;;;;;;;;;1.50;1.50;;;;;14.12;65.98;99874.19;5073470;27;46047;-74
2023/03/23 04:32:17;;;;;;;;;1.00;1.00;;;;;14.19;65.99;99888.44;5073401;28;45624;-74
2023/03/23 04:34:43;;;;;;;;;1.25;1.00;;;;;14.16;66.39;99904.53;5076515;27;45580;-72
2023/03/23 04:37:09;;;;;;;;;1.75;1.75;;;;;14.12;66.33;99900.53;5076046;27;47292;-73
2023/03/23 04:39:34;;;;;;;;;1.00;1.00;;;;;14.11;66.27;99902.34;5076282;27;46233;-73
2023/03/23 04:42:01;;;;;;;;;2.00;2.00;;;;;14.09;66.00;99899.03;5076633;28;45661;-72
2023/03/23 04:47:57;;;;;;;;;2.00;1.00;;;;;14.08;66.39;99923.72;5075908;28;46081;-72
2023/03/23 04:50:23;;;;;;;;;2.00;1.50;;;;;14.06;66.12;99896.69;5075566;27;46064;-72
2023/03/23 04:52:51;;;;;;;;;1.00;1.00;;;;;14.11;65.90;99914.69;5076072;28;45595;-73
2023/03/23 04:55:17;;;;;;;;;0.75;0.75;;;;;14.10;66.01;99905.13;5076099;27;45524;-74
2023/03/23 04:57:43;;;;;;;;;0.50;0.50;;;;;14.11;66.16;99910.25;5076189;28;46215;-73
2023/03/23 05:03:30;;;;;;;;;1.50;1.00;;;;;14.10;66.25;99905.13;5076027;28;45704;-72
2023/03/23 05:05:57;;;;;;;;;1.50;1.00;;;;;14.09;66.00;99901.66;5076137;28;45858;-73
2023/03/23 05:08:26;;;;;;;;;1.25;1.25;;;;;14.11;66.15;99906.78;5075647;28;45751;-74
2023/03/23 05:10:53;;;;;;;;;1.00;0.25;;;;;14.11;66.40;99919.94;5075432;27;46336;-73
2023/03/23 05:13:19;;;;;;;;;1.50;1.00;;;;;14.13;66.12;99910.09;5074997;27;45650;-72
2023/03/23 05:15:45;;;;;;;;;0.00;0.00;;;;;14.07;66.02;99911.53;5075725;28;45893;-71
2023/03/23 05:18:10;;;;;;;;;1.00;1.00;;;;;14.10;66.20;99918.28;5075022;28;47196;-74
2023/03/23 05:20:36;;;;;;;;;1.00;1.00;;;;;14.09;65.74;99914.81;5075372;27;47102;-73
2023/03/23 05:23:02;;;;;;;;;1.00;1.00;;;;;14.11;65.76;99912.88;5075660;27;45661;-73
2023/03/23 05:25:27;;;;;;;;;0.25;0.25;;;;;14.08;65.85;99920.25;5075911;28;45558;-73
2023/03/23 05:27:53;;;;;;;;;1.25;1.00;;;;;14.10;65.84;99918.28;5075358;27;46794;-72
2023/03/23 05:33:40;;;;;;;;;1.00;1.00;;;;;14.07;66.21;99915.97;5075308;28;45595;-73
2023/03/23 05:36:07;;;;;;;;;1.00;1.00;;;;;13.95;66.34;99891.63;5075561;27;45590;-74
2023/03/23 05:38:32;;;;;;;;;0.50;0.00;;;;;14.07;66.04;99918.59;5075372;28;46480;-75
2023/03/23 05:41:00;;;;;;;;;1.00;1.00;;;;;14.05;66.36;99921.38;5073827;28;48406;-70
2023/03/23 05:43:26;;;;;;;;;0.50;0.50;;;;;14.05;66.83;99924.00;5075219;27;45609;-75
2023/03/23 05:49:18;;;;;;;;;1.00;1.00;;;;;14.01;66.91;99920.03;5074608;28;45637;-73
2023/03/23 05:51:49;;;;;;;;;1.00;1.00;;;;;14.01;66.97;99922.66;5075299;28;46185;-76
2023/03/23 05:54:15;;;;;;;;;0.75;0.00;;;;;14.02;67.29;99903.25;5075040;27;45594;-74
2023/03/23 05:56:40;;;;;;;;;2.00;1.00;;;;;14.01;67.30;99916.56;5075170;27;45937;-75
2023/03/23 05:59:06;;;;;;;;;1.00;0.25;;;;;13.92;67.45;99899.00;5074101;27;46258;-76
2023/03/23 06:01:32;;;;;;;;;0.75;0.75;;;;;14.01;67.42;99913.91;5074694;27;45987;-74
2023/03/23 06:03:58;;;;;;;;;1.00;1.00;;;;;13.99;67.80;99916.69;5074160;27;45668;-75
2023/03/23 06:06:29;;;;;;;;;0.50;0.50;;;;;14.00;67.52;99918.34;5090733;27;45651;-74
2023/03/23 06:08:54;;;;;;;;;1.00;1.00;;;;;14.00;67.26;99923.63;5074323;27;45911;-73
2023/03/23 06:11:20;;;;;;;;;0.00;0.00;;;;;13.98;67.34;99912.41;5074103;28;46225;-73
2023/03/23 06:13:45;;;;;;;;;1.00;0.50;;;;;13.99;67.47;99914.06;5073536;27;45657;-72
2023/03/23 06:19:32;;;;;;;;;2.00;1.00;;;;;13.95;67.90;99922.41;5073490;28;46125;-73
2023/03/23 06:21:57;;;;;;;;;1.00;0.00;;;;;13.92;67.67;99913.00;5074570;28;45962;-73
2023/03/23 06:24:22;;;;;;;;;0.50;0.50;;;;;13.96;67.75;99930.16;5074871;28;45709;-74
2023/03/23 06:26:49;;;;;;;;;2.75;1.00;;;;;13.96;68.05;99929.34;5074505;28;45669;-74
2023/03/23 06:29:15;;;;;;;;;2.75;2.00;;;;;13.93;67.95;99924.38;5074318;27;46044;-73
2023/03/23 06:31:47;;;;;;;;;0.50;0.50;;;;;13.93;67.77;99925.19;5089920;27;47006;-72
2023/03/23 06:34:13;;;;;;;;;1.00;1.00;;;;;13.88;67.95;99907.19;5074007;27;45647;-71
2023/03/23 06:36:38;;;;;;;;;1.00;1.00;;;;;13.97;68.12;99925.72;5074196;27;45577;-71
2023/03/23 06:39:06;;;;;;;;;1.25;1.00;;;;;13.97;67.80;99923.94;5073821;28;47284;-70
2023/03/23 06:41:32;;;;;;;;;1.75;0.00;;;;;13.98;68.07;99930.84;5074070;27;47304;-72
2023/03/23 06:43:58;;;;;;;;;1.00;1.00;;;;;13.97;67.97;99923.94;5074862;27;45632;-73
2023/03/23 06:49:45;;;;;;;;;2.00;2.00;;;;;14.07;67.93;99964.22;5069794;28;46121;-72
2023/03/23 06:52:10;;;;;;;;;1.00;1.00;;;;;14.08;67.82;99950.06;5074291;27;46220;-72
2023/03/23 06:54:36;;;;;;;;;2.00;1.00;;;;;14.11;68.35;99962.94;5074342;27;45578;-71
2023/03/23 06:57:01;;;;;;;;;2.00;1.75;;;;;14.05;68.13;99955.63;5073666;27;46004;-72
2023/03/23 06:59:26;;;;;;;;;1.00;1.00;;;;;14.05;68.00;99954.78;5073769;27;47370;-71
2023/03/23 07:05:14;;;;;;;;;3.00;2.00;;;;;14.06;68.13;99975.72;5074163;28;45910;-73
2023/03/23 07:07:40;;;;;;;;;1.75;1.75;;;;;14.14;67.86;99975.00;5073421;28;45683;-72
2023/03/23 07:10:11;;;;;;;;;3.00;3.00;;;;;14.17;67.75;99975.53;5073711;27;45576;-73
2023/03/23 07:12:37;;;;;;;;;2.00;2.00;;;;;14.18;67.88;99973.72;5074437;27;45791;-72
2023/03/23 07:15:04;;;;;;;;;5.00;4.75;;;;;14.18;68.10;99979.00;5073670;27;45569;-73
2023/03/23 07:17:29;;;;;;;;;3.00;3.00;;;;;14.19;68.00;99973.56;5073594;27;45859;-72
2023/03/23 07:19:55;;;;;;;;;2.00;2.00;;;;;14.20;67.77;99969.09;5073928;27;46337;-72
2023/03/23 07:22:20;;;;;;;;;3.00;2.00;;;;;14.26;67.39;99973.78;5073833;27;46426;-71
2023/03/23 07:24:46;;;;;;;;;3.25;2.00;;;;;14.25;67.55;99982.69;5073893;27;45829;-71
2023/03/23 07:27:11;;;;;;;;;1.50;1.50;;;;;14.29;67.14;99990.16;5073599;28;45884;-72
2023/03/23 07:29:38;;;;;;;;;2.00;2.00;;;;;14.29;67.26;99981.41;5073551;28;46480;-73
2023/03/23 07:35:25;;;;;;;;;4.00;3.00;;;;;14.32;67.38;99970.56;5073732;28;45706;-72
2023/03/23 07:37:52;;;;;;;;;2.25;2.00;;;;;14.38;67.06;99985.00;5073738;28;45712;-73
2023/03/23 07:40:17;;;;;;;;;3.00;2.00;;;;;14.42;66.84;99967.88;5073342;27;45762;-72
2023/03/23 07:42:45;;;;;;;;;2.25;2.25;;;;;14.46;66.66;99975.38;5073523;27;45988;-72
2023/03/23 07:45:12;;;;;;;;;2.75;2.00;;;;;14.45;66.72;99986.91;5073658;27;45858;-72
2023/03/23 07:47:39;;;;;;;;;2.25;2.00;;;;;14.48;66.33;99993.66;5073266;27;45511;-71
2023/03/23 07:50:06;;;;;;;;;1.75;1.50;;;;;14.50;66.65;100002.25;5073255;27;45605;-72
2023/03/23 07:52:32;;;;;;;;;3.00;2.00;;;;;14.54;66.33;100000.97;5073097;27;46060;-73
2023/03/23 07:54:58;;;;;;;;;1.00;1.00;;;;;14.57;66.29;100003.31;5073405;27;45677;-71
2023/03/23 07:57:23;;;;;;;;;2.00;1.75;;;;;14.59;65.82;99986.38;5071724;28;45695;-72
2023/03/23 07:59:49;;;;;;;;;0.75;0.75;;;;;14.62;65.40;99988.72;5072778;28;47224;-74
2023/03/23 08:05:36;;;;;;;;;2.00;2.00;;;;;14.66;65.64;100008.53;5073272;28;45623;-73
2023/03/23 08:08:01;;;;;;;;;2.25;1.75;;;;;14.68;65.56;100000.47;5071878;27;45753;-71
2023/03/23 08:10:27;;;;;;;;;2.00;2.00;;;;;14.66;65.32;100005.88;5072857;27;46375;-73
2023/03/23 08:12:55;;;;;;;;;2.00;1.00;;;;;14.72;65.06;100009.72;5088647;27;47701;-72
2023/03/23 08:15:21;;;;;;;;;1.75;1.50;;;;;14.70;65.00;100001.13;5073244;27;45541;-72
2023/03/23 08:21:09;;;;;;;;;2.25;2.00;;;;;14.74;64.73;100005.13;5072663;28;46022;-71
2023/03/23 08:23:36;;;;;;;;;1.75;1.75;;;;;14.74;64.70;100010.41;5088740;27;47571;-72
2023/03/23 08:26:03;;;;;;;;;2.00;2.00;;;;;14.78;64.80;99998.59;5072839;27;45495;-71
2023/03/23 08:28:28;;;;;;;;;3.00;2.00;;;;;14.80;64.82;100011.59;5072868;27;45844;-71
2023/03/23 08:30:54;;;;;;;;;1.50;1.50;;;;;14.87;64.28;100023.22;5072454;27;46494;-72
2023/03/23 08:33:21;;;;;;;;;3.50;2.50;;;;;14.92;64.12;100020.97;5072594;27;47030;-71
2023/03/23 08:35:54;;;;;;;;;1.50;1.50;;;;;14.93;64.02;100022.63;5072897;27;45663;-71
2023/03/23 08:38:21;;;;;;;;;2.75;2.00;;;;;14.96;63.71;100017.84;5088158;27;46142;-72
2023/03/23 08:40:47;;;;;;;;;2.25;1.25;;;;;14.96;63.73;100020.50;5070952;28;46460;-72
2023/03/23 08:43:12;;;;;;;;;2.00;2.00;;;;;14.97;63.90;100019.53;5072816;27;46323;-71
2023/03/23 08:45:38;;;;;;;;;2.00;1.50;;;;;15.03;63.28;100016.28;5072999;28;45660;-71
2023/03/23 08:48:03;;;;;;;;;3.75;2.00;;;;;15.02;63.48;100009.34;5072639;28;45845;-71
2023/03/23 08:50:30;;;;;;;;;3.00;2.00;;;;;15.04;63.08;100009.19;5072346;28;46114;-71
2023/03/23 08:52:56;;;;;;;;;1.00;1.00;;;;;15.03;62.92;100026.00;5073146;27;45538;-70
2023/03/23 08:55:21;;;;;;;;;2.00;2.00;;;;;15.00;62.79;100013.13;5072806;28;45563;-71
2023/03/23 08:57:47;;;;;;;;;2.25;1.75;;;;;15.04;62.72;100019.75;5072756;28;45956;-72
2023/03/23 09:00:19;;;;;;;;;2.00;2.00;;;;;15.02;63.04;100013.78;5072639;28;46695;-74
2023/03/23 09:06:08;;;;;;;;;2.50;2.00;;;;;15.09;62.76;100012.22;5072566;28;45681;-73
2023/03/23 09:08:35;;;;;;;;;1.00;1.00;;;;;15.10;62.26;100025.25;5072832;27;45741;-74
2023/03/23 09:11:04;;;;;;;;;3.25;2.00;;;;;15.02;62.05;100046.28;5088153;27;47953;-73
2023/03/23 09:13:30;;;;;;;;;1.25;1.25;;;;;15.01;62.34;100033.22;5072441;27;47083;-73
2023/03/23 09:15:57;;;;;;;;;2.25;2.25;;;;;14.97;62.05;100037.16;5072605;28;45760;-74
2023/03/23 09:18:23;;;;;;;;;2.75;1.00;;;;;14.99;62.25;100037.84;5072794;27;45745;-74
2023/03/23 09:20:52;;;;;;;;;3.00;2.00;;;;;15.02;62.38;100037.53;5075354;27;46332;-71
2023/03/23 09:23:18;;;;;;;;;3.00;2.00;;;;;15.06;62.33;100023.06;5075527;27;45683;-71
2023/03/23 09:25:43;;;;;;;;;2.25;2.00;;;;;15.09;61.92;100034.16;5075563;28;45821;-71
2023/03/23 09:28:09;;;;;;;;;2.00;1.75;;;;;15.09;61.91;100028.88;5075686;28;45561;-73
2023/03/23 09:30:36;;;;;;;;;2.00;2.00;;;;;15.12;61.89;100018.00;5075498;27;46571;-71
2023/03/23 09:36:25;;;;;;;;;2.75;2.00;;;;;15.11;61.54;100021.59;5075431;28;45523;-73
2023/03/23 09:38:52;;;;;;;;;3.25;1.00;;;;;15.09;61.71;100023.59;5091015;27;46090;-72
2023/03/23 09:41:44;;;;;;;;;2.00;2.00;;;;;15.16;61.56;100046.75;5075030;27;47448;-73
2023/03/23 09:44:51;;;;;;;;;2.25;2.00;;;;;15.19;61.23;100034.06;5075360;27;47106;-73
2023/03/23 09:50:43;;;;;;;;;3.25;2.00;;;;;15.25;61.01;100044.00;5012269;28;45813;-71
2023/03/23 09:53:19;;;;;;;;;3.00;2.00;;;;;15.25;61.40;100038.72;5032593;28;46499;-73
2023/03/23 09:55:45;;;;;;;;;4.00;2.00;;;;;15.25;61.13;100049.28;5032292;28;46403;-73
2023/03/23 09:58:32;;;;;;;;;2.00;1.00;;;;;15.26;60.87;100043.03;5031892;28;45779;-73
2023/03/23 10:00:58;;;;;;;;;4.50;3.00;;;;;15.26;60.74;100039.56;5032644;28;45662;-71
2023/03/23 10:06:47;;;;;;;;;2.00;2.00;;;;;15.31;61.18;100022.28;5032001;28;45712;-72
2023/03/23 10:09:16;;;;;;;;;2.00;2.00;;;;;15.27;60.97;100002.47;5032142;28;45845;-74
2023/03/23 10:11:57;;;;;;;;;3.00;1.00;;;;;15.37;60.93;100016.38;5032763;28;45662;-74
2023/03/23 10:14:31;;;;;;;;;1.00;1.00;;;;;15.47;60.72;100024.22;5032190;28;47384;-74
2023/03/23 10:17:12;;;;;;;;;2.50;2.00;;;;;15.55;60.60;100019.00;5031897;28;45607;-74
2023/03/23 10:20:00;;;;;;;;;3.00;1.50;;;;;15.63;60.33;100016.44;5032400;28;45870;-73
2023/03/23 10:22:32;;;;;;;;;2.50;2.25;;;;;15.73;60.24;100017.13;5032532;28;45520;-73
2023/03/23 10:25:17;;;;;;;;;2.25;1.50;;;;;15.80;59.66;100047.22;5064505;28;46619;-73
2023/03/23 10:28:11;;;;;;;;;3.00;2.00;;;;;15.88;59.39;100041.16;5074281;27;46517;-74
2023/03/23 10:30:40;;;;;;;;;3.00;2.00;;;;;15.90;59.61;100016.25;5073986;28;45641;-73
2023/03/23 10:33:16;;;;;;;;;1.75;1.50;;;;;16.02;59.25;100002.75;5075090;27;45690;-73
2023/03/23 10:36:03;;;;;;;;;2.50;1.25;;;;;16.06;58.95;100010.22;5074774;28;45641;-74
2023/03/23 10:38:37;;;;;;;;;1.50;1.50;;;;;16.14;58.46;100031.38;5074558;27;46224;-71
2023/03/23 10:41:11;;;;;;;;;1.25;1.25;;;;;16.12;58.64;100029.88;5089842;27;45722;-73
2023/03/23 10:43:37;;;;;;;;;1.50;1.50;;;;;16.19;58.30;100036.19;5074545;27;45879;-73
2023/03/23 10:46:14;;;;;;;;;1.75;1.50;;;;;16.20;58.15;100019.34;5074534;27;45782;-71
2023/03/23 10:48:40;;;;;;;;;2.75;2.00;;;;;16.28;57.68;100011.44;5074173;27;46328;-73
2023/03/23 10:51:12;;;;;;;;;1.75;1.50;;;;;16.34;57.72;100032.78;5073870;27;46147;-72
2023/03/23 10:53:47;;;;;;;;;1.50;1.00;;;;;16.37;57.37;100045.69;5074815;27;45568;-74
2023/03/23 10:56:36;;;;;;;;;3.00;1.25;;;;;16.42;57.67;100034.63;5074599;27;46786;-73
2023/03/23 10:59:26;;;;;;;;;2.00;2.00;;;;;16.43;56.96;100027.50;5073876;27;47659;-71
2023/03/23 11:05:20;;;;;;;;;2.75;2.00;;;;;16.53;56.64;100020.25;5074136;28;45707;-73
2023/03/23 11:07:56;;;;;;;;;1.00;1.00;;;;;16.58;56.47;100037.31;5073599;27;46877;-71
2023/03/23 11:10:35;;;;;;;;;2.00;1.00;;;;;16.60;56.37;100029.25;5073709;27;45879;-71
2023/03/23 11:13:04;;;;;;;;;2.75;1.75;;;;;16.59;56.80;100025.78;5074273;28;45687;-72
2023/03/23 11:15:34;;;;;;;;;1.75;1.00;;;;;16.61;56.29;100028.25;5074324;27;45581;-72
2023/03/23 11:21:23;;;;;;;;;3.00;3.00;;;;;16.75;56.54;100015.22;5073489;28;45978;-71
2023/03/23 11:23:55;;;;;;;;;5.00;2.75;;;;;16.81;56.58;100008.44;5073951;28;45685;-73
2023/03/23 11:26:20;;;;;;;;;3.00;2.00;;;;;16.90;56.10;100025.16;5074170;27;45974;-72
2023/03/23 11:28:57;;;;;;;;;4.50;2.00;;;;;16.93;55.88;100017.72;5088969;27;48483;-70
2023/03/23 11:31:28;;;;;;;;;2.00;1.25;;;;;16.94;55.95;100016.75;5073396;27;46217;-71
2023/03/23 11:37:25;;;;;;;;;3.75;3.75;;;;;16.92;55.34;100017.88;5073154;28;45566;-71
2023/03/23 11:40:06;;;;;;;;;3.00;3.00;;;;;16.91;55.71;100009.13;5071680;28;46683;-72
2023/03/23 11:42:43;;;;;;;;;4.50;2.25;;;;;16.92;55.60;100004.66;5071944;27;46112;-71
2023/03/23 11:45:24;;;;;;;;;1.00;1.00;;;;;17.01;55.21;100012.44;5072211;28;45894;-72
2023/03/23 11:47:56;;;;;;;;;2.00;2.00;;;;;17.02;55.35;100011.44;5073179;27;45760;-71
2023/03/23 11:50:33;;;;;;;;;2.00;2.00;;;;;17.02;54.78;100021.19;5072920;27;46296;-71
2023/03/23 11:53:09;;;;;;;;;2.00;2.00;;;;;17.05;54.65;100015.59;5073325;27;47013;-72
2023/03/23 11:55:43;;;;;;;;;2.50;1.00;;;;;17.07;54.56;100009.13;5073609;27;45847;-72
2023/03/23 11:58:14;;;;;;;;;1.00;1.00;;;;;17.04;54.34;100017.41;5088621;27;45787;-73
2023/03/23 12:00:50;;;;;;;;;3.00;2.00;;;;;17.08;54.41;100009.97;5072902;27;47444;-72
2023/03/23 12:03:33;;;;;;;;;2.00;2.00;;;;;17.09;54.78;100016.91;5073039;27;46259;-72
2023/03/23 12:06:02;;;;;;;;;3.00;3.00;;;;;17.11;54.46;100017.59;5073681;28;45743;-71
2023/03/23 12:09:06;;;;;;;;;1.75;1.50;;;;;17.12;54.61;100013.91;5073354;28;45757;-72
2023/03/23 12:11:51;;;;;;;;;3.50;2.00;;;;;17.20;54.47;100008.63;5072958;27;46829;-72
2023/03/23 12:14:16;;;;;;;;;1.25;1.25;;;;;17.30;54.42;100006.66;5072959;27;47028;-70
2023/03/23 12:17:02;;;;;;;;;4.00;2.00;;;;;17.37;54.65;100015.59;5072801;27;45546;-71
2023/03/23 12:19:42;;;;;;;;;1.50;1.50;;;;;17.41;54.07;100010.78;5073051;27;45736;-73
2023/03/23 12:22:28;;;;;;;;;3.50;2.75;;;;;17.42;54.38;100009.78;5073039;28;45728;-74
2023/03/23 12:25:18;;;;;;;;;3.25;3.00;;;;;17.44;53.96;100013.91;5073075;28;46375;-73
2023/03/23 12:28:26;;;;;;;;;3.25;3.00;;;;;17.51;54.22;100014.06;5073050;28;45760;-72
2023/03/23 12:31:06;;;;;;;;;6.00;3.50;;;;;17.59;53.88;100014.06;5029980;28;45778;-70
2023/03/23 12:34:08;;;;;;;;;4.00;3.00;;;;;17.69;53.72;100027.16;5029981;28;45875;-71
2023/03/23 12:36:47;;;;;;;;;4.00;3.00;;;;;17.79;54.01;100014.53;5029786;28;46431;-71
2023/03/23 12:39:31;;;;;;;;;4.50;2.75;;;;;17.84;53.15;100012.19;5029845;28;45667;-73
2023/03/23 12:42:08;;;;;;;;;5.75;3.00;;;;;17.91;53.51;99991.97;5030109;28;45645;-74
2023/03/23 12:45:08;;;;;;;;;3.75;2.75;;;;;17.98;52.98;99992.94;5030165;28;46584;-73
2023/03/23 12:50:57;;;;;;;;;3.00;2.00;;;;;18.00;52.81;99991.78;4950781;28;45814;-72
2023/03/23 12:53:30;;;;;;;;;2.50;2.50;;;;;18.01;52.53;99996.09;4951698;28;45704;-72
2023/03/23 12:56:20;;;;;;;;;4.50;2.50;;;;;18.05;52.30;99983.28;4954754;28;45985;-72
2023/03/23 12:58:50;;;;;;;;;4.00;3.00;;;;;18.07;52.26;99973.34;4937854;28;48458;-71
2023/03/23 13:01:23;;;;;;;;;6.75;3.00;;;;;18.13;51.65;99969.19;4954442;28;45931;-73
2023/03/23 13:07:31;;;;;;;;;3.50;2.50;;;;;18.28;51.58;99976.22;4964859;28;45658;-71
2023/03/23 13:10:20;;;;;;;;;4.00;2.00;;;;;18.37;51.44;99974.34;5013006;28;46189;-73
2023/03/23 13:12:48;;;;;;;;;3.25;3.00;;;;;18.37;50.90;99974.34;5013413;28;45754;-72
2023/03/23 13:15:28;;;;;;;;;3.25;3.00;;;;;18.39;50.89;99962.56;5013466;28;45712;-71
2023/03/23 13:18:15;;;;;;;;;2.00;2.00;;;;;18.42;50.77;99969.34;5012510;28;47523;-73